sensor_id;sensor_type;location;lat;lon;timestamp;temperature;humidity
42833;DHT22;28479;51.478;5.692;2022-09-09T00:04:28;14.90;99.90
42833;DHT22;28479;51.478;5.692;2022-09-09T00:12:52;15.00;99.90
42833;DHT22;28479;51.478;5.692;2022-09-09T00:15:27;14.90;99.90
42833;DHT22;28479;51.478;5.692;2022-09-09T00:18:18;14.90;99.90
42833;DHT22;28479;51.478;5.692;2022-09-09T00:20:53;14.80;99.90
42833;DHT22;28479;51.478;5.692;2022-09-09T00:25:54;14.80;99.90
42833;DHT22;28479;51.478;5.692;2022-09-09T00:28:24;14.80;99.90
42833;DHT22;28479;51.478;5.692;2022-09-09T00:30:50;14.80;99.90
42833;DHT22;28479;51.478;5.692;2022-09-09T00:33:28;14.80;99.90
42833;DHT22;28479;51.478;5.692;2022-09-09T00:35:57;14.70;99.90
42833;DHT22;28479;51.478;5.692;2022-09-09T00:38:39;14.70;99.90
42833;DHT22;28479;51.478;5.692;2022-09-09T00:46:41;14.70;99.90
42833;DHT22;28479;51.478;5.692;2022-09-09T00:54:59;14.60;99.90
42833;DHT22;28479;51.478;5.692;2022-09-09T00:57:32;14.60;99.90
42833;DHT22;28479;51.478;5.692;2022-09-09T01:00:17;14.60;99.90
42833;DHT22;28479;51.478;5.692;2022-09-09T01:11:04;14.60;99.90
42833;DHT22;28479;51.478;5.692;2022-09-09T01:13:33;14.50;99.90
42833;DHT22;28479;51.478;5.692;2022-09-09T01:16:01;14.50;99.90
42833;DHT22;28479;51.478;5.692;2022-09-09T01:18:36;14.50;99.90
42833;DHT22;28479;51.478;5.692;2022-09-09T01:21:25;14.50;99.90
42833;DHT22;28479;51.478;5.692;2022-09-09T01:26:56;14.50;99.90
42833;DHT22;28479;51.478;5.692;2022-09-09T01:29:24;14.50;99.90
42833;DHT22;28479;51.478;5.692;2022-09-09T01:32:02;14.50;99.90
42833;DHT22;28479;51.478;5.692;2022-09-09T01:34:38;14.50;99.90
42833;DHT22;28479;51.478;5.692;2022-09-09T01:37:12;14.50;99.90
42833;DHT22;28479;51.478;5.692;2022-09-09T01:39:39;14.40;99.90
42833;DHT22;28479;51.478;5.692;2022-09-09T01:42:08;14.40;99.90
42833;DHT22;28479;51.478;5.692;2022-09-09T01:44:35;14.40;99.90
42833;DHT22;28479;51.478;5.692;2022-09-09T01:47:01;14.40;99.90
42833;DHT22;28479;51.478;5.692;2022-09-09T01:49:27;14.40;99.90
42833;DHT22;28479;51.478;5.692;2022-09-09T01:51:55;14.40;99.90
42833;DHT22;28479;51.478;5.692;2022-09-09T01:54:22;14.30;99.90
42833;DHT22;28479;51.478;5.692;2022-09-09T01:57:21;14.40;99.90
42833;DHT22;28479;51.478;5.692;2022-09-09T02:02:36;14.40;99.90
42833;DHT22;28479;51.478;5.692;2022-09-09T02:07:47;14.40;99.90
42833;DHT22;28479;51.478;5.692;2022-09-09T02:10:30;14.40;99.90
42833;DHT22;28479;51.478;5.692;2022-09-09T02:13:18;14.40;99.90
42833;DHT22;28479;51.478;5.692;2022-09-09T02:15:58;14.40;99.90
42833;DHT22;28479;51.478;5.692;2022-09-09T02:21:08;14.30;99.90
42833;DHT22;28479;51.478;5.692;2022-09-09T02:23:38;14.30;99.90
42833;DHT22;28479;51.478;5.692;2022-09-09T02:26:06;14.30;99.90
42833;DHT22;28479;51.478;5.692;2022-09-09T02:28:34;14.30;99.90
42833;DHT22;28479;51.478;5.692;2022-09-09T02:31:01;14.30;99.90
42833;DHT22;28479;51.478;5.692;2022-09-09T02:33:33;14.30;99.90
42833;DHT22;28479;51.478;5.692;2022-09-09T02:36:01;14.30;99.90
42833;DHT22;28479;51.478;5.692;2022-09-09T02:38:32;14.20;99.90
42833;DHT22;28479;51.478;5.692;2022-09-09T02:40:58;14.30;99.90
42833;DHT22;28479;51.478;5.692;2022-09-09T02:43:24;14.30;99.90
42833;DHT22;28479;51.478;5.692;2022-09-09T02:46:07;14.30;99.90
42833;DHT22;28479;51.478;5.692;2022-09-09T02:48:59;14.30;99.90
42833;DHT22;28479;51.478;5.692;2022-09-09T02:54:28;14.30;99.90
42833;DHT22;28479;51.478;5.692;2022-09-09T02:57:22;14.30;99.90
42833;DHT22;28479;51.478;5.692;2022-09-09T02:59:49;14.30;99.90
42833;DHT22;28479;51.478;5.692;2022-09-09T03:02:17;14.30;99.90
42833;DHT22;28479;51.478;5.692;2022-09-09T03:04:44;14.30;99.90
42833;DHT22;28479;51.478;5.692;2022-09-09T03:07:10;14.20;99.90
42833;DHT22;28479;51.478;5.692;2022-09-09T03:09:36;14.20;99.90
42833;DHT22;28479;51.478;5.692;2022-09-09T03:12:02;14.20;99.90
42833;DHT22;28479;51.478;5.692;2022-09-09T03:14:29;14.20;99.90
42833;DHT22;28479;51.478;5.692;2022-09-09T03:16:56;14.20;99.90
42833;DHT22;28479;51.478;5.692;2022-09-09T03:19:23;14.30;99.90
42833;DHT22;28479;51.478;5.692;2022-09-09T03:21:49;14.40;99.90
42833;DHT22;28479;51.478;5.692;2022-09-09T03:24:15;14.40;99.90
42833;DHT22;28479;51.478;5.692;2022-09-09T03:26:41;14.50;99.90
42833;DHT22;28479;51.478;5.692;2022-09-09T03:29:10;14.60;99.90
42833;DHT22;28479;51.478;5.692;2022-09-09T03:31:38;14.60;99.90
42833;DHT22;28479;51.478;5.692;2022-09-09T03:34:04;14.60;99.90
42833;DHT22;28479;51.478;5.692;2022-09-09T03:36:30;14.70;99.90
42833;DHT22;28479;51.478;5.692;2022-09-09T03:38:55;14.70;99.90
42833;DHT22;28479;51.478;5.692;2022-09-09T03:41:22;14.70;99.90
42833;DHT22;28479;51.478;5.692;2022-09-09T03:43:50;14.70;99.90
42833;DHT22;28479;51.478;5.692;2022-09-09T03:46:16;14.80;99.90
42833;DHT22;28479;51.478;5.692;2022-09-09T03:48:42;14.80;99.90
42833;DHT22;28479;51.478;5.692;2022-09-09T03:51:08;14.80;99.90
42833;DHT22;28479;51.478;5.692;2022-09-09T03:53:33;14.90;99.90
42833;DHT22;28479;51.478;5.692;2022-09-09T03:55:59;14.90;99.90
42833;DHT22;28479;51.478;5.692;2022-09-09T03:58:26;14.90;99.90
42833;DHT22;28479;51.478;5.692;2022-09-09T04:00:55;14.90;99.90
42833;DHT22;28479;51.478;5.692;2022-09-09T04:03:21;14.90;99.90
42833;DHT22;28479;51.478;5.692;2022-09-09T04:05:49;15.00;99.90
42833;DHT22;28479;51.478;5.692;2022-09-09T04:08:14;15.00;99.90
42833;DHT22;28479;51.478;5.692;2022-09-09T04:10:40;15.00;99.90
42833;DHT22;28479;51.478;5.692;2022-09-09T04:13:05;15.00;99.90
42833;DHT22;28479;51.478;5.692;2022-09-09T04:15:31;15.00;99.90
42833;DHT22;28479;51.478;5.692;2022-09-09T04:17:57;15.00;99.90
42833;DHT22;28479;51.478;5.692;2022-09-09T04:20:23;15.00;99.90
42833;DHT22;28479;51.478;5.692;2022-09-09T04:22:49;15.00;99.90
42833;DHT22;28479;51.478;5.692;2022-09-09T04:25:15;15.00;99.90
42833;DHT22;28479;51.478;5.692;2022-09-09T04:27:40;15.00;99.90
42833;DHT22;28479;51.478;5.692;2022-09-09T04:30:07;15.00;99.90
42833;DHT22;28479;51.478;5.692;2022-09-09T04:32:33;15.00;99.90
42833;DHT22;28479;51.478;5.692;2022-09-09T04:34:59;15.00;99.90
42833;DHT22;28479;51.478;5.692;2022-09-09T04:37:24;15.00;99.90
42833;DHT22;28479;51.478;5.692;2022-09-09T04:39:50;15.00;99.90
42833;DHT22;28479;51.478;5.692;2022-09-09T04:42:16;15.10;99.90
42833;DHT22;28479;51.478;5.692;2022-09-09T04:44:43;15.10;99.90
42833;DHT22;28479;51.478;5.692;2022-09-09T04:47:09;15.10;99.90
42833;DHT22;28479;51.478;5.692;2022-09-09T04:49:35;15.10;99.90
42833;DHT22;28479;51.478;5.692;2022-09-09T04:52:02;15.10;99.90
42833;DHT22;28479;51.478;5.692;2022-09-09T04:54:29;15.10;99.90
42833;DHT22;28479;51.478;5.692;2022-09-09T04:56:54;15.10;99.90
42833;DHT22;28479;51.478;5.692;2022-09-09T04:59:20;15.10;99.90
42833;DHT22;28479;51.478;5.692;2022-09-09T05:01:47;15.00;99.90
42833;DHT22;28479;51.478;5.692;2022-09-09T05:04:13;15.00;99.90
42833;DHT22;28479;51.478;5.692;2022-09-09T05:06:40;14.90;99.90
42833;DHT22;28479;51.478;5.692;2022-09-09T05:09:07;14.90;99.90
42833;DHT22;28479;51.478;5.692;2022-09-09T05:11:34;14.90;99.90
42833;DHT22;28479;51.478;5.692;2022-09-09T05:14:02;14.90;99.90
42833;DHT22;28479;51.478;5.692;2022-09-09T05:16:28;14.90;99.90
42833;DHT22;28479;51.478;5.692;2022-09-09T05:18:54;14.90;99.90
42833;DHT22;28479;51.478;5.692;2022-09-09T05:21:22;14.90;99.90
42833;DHT22;28479;51.478;5.692;2022-09-09T05:23:48;14.90;99.90
42833;DHT22;28479;51.478;5.692;2022-09-09T05:26:19;14.90;99.90
42833;DHT22;28479;51.478;5.692;2022-09-09T05:28:46;14.90;99.90
42833;DHT22;28479;51.478;5.692;2022-09-09T05:31:13;14.90;99.90
42833;DHT22;28479;51.478;5.692;2022-09-09T05:33:40;14.90;99.90
42833;DHT22;28479;51.478;5.692;2022-09-09T05:36:11;14.90;99.90
42833;DHT22;28479;51.478;5.692;2022-09-09T05:38:39;14.90;99.90
42833;DHT22;28479;51.478;5.692;2022-09-09T05:41:06;14.90;99.90
42833;DHT22;28479;51.478;5.692;2022-09-09T05:43:32;14.80;99.90
42833;DHT22;28479;51.478;5.692;2022-09-09T05:46:06;14.90;99.90
42833;DHT22;28479;51.478;5.692;2022-09-09T05:48:38;14.90;99.90
42833;DHT22;28479;51.478;5.692;2022-09-09T05:51:05;14.90;99.90
42833;DHT22;28479;51.478;5.692;2022-09-09T05:53:32;14.90;99.90
42833;DHT22;28479;51.478;5.692;2022-09-09T05:56:04;14.90;99.90
42833;DHT22;28479;51.478;5.692;2022-09-09T05:58:31;14.90;99.90
42833;DHT22;28479;51.478;5.692;2022-09-09T06:01:09;14.90;99.90
42833;DHT22;28479;51.478;5.692;2022-09-09T06:03:36;15.00;99.90
42833;DHT22;28479;51.478;5.692;2022-09-09T06:06:05;15.00;99.90
42833;DHT22;28479;51.478;5.692;2022-09-09T06:08:32;15.10;99.90
42833;DHT22;28479;51.478;5.692;2022-09-09T06:11:05;15.10;99.90
42833;DHT22;28479;51.478;5.692;2022-09-09T06:13:32;15.10;99.90
42833;DHT22;28479;51.478;5.692;2022-09-09T06:15:58;15.20;99.90
42833;DHT22;28479;51.478;5.692;2022-09-09T06:18:25;15.20;99.90
42833;DHT22;28479;51.478;5.692;2022-09-09T06:23:24;15.30;99.90
42833;DHT22;28479;51.478;5.692;2022-09-09T06:25:51;15.40;99.90
42833;DHT22;28479;51.478;5.692;2022-09-09T06:28:17;15.40;99.90
42833;DHT22;28479;51.478;5.692;2022-09-09T06:30:43;15.40;99.90
42833;DHT22;28479;51.478;5.692;2022-09-09T06:33:09;15.50;99.90
42833;DHT22;28479;51.478;5.692;2022-09-09T06:35:35;15.50;99.90
42833;DHT22;28479;51.478;5.692;2022-09-09T06:38:01;15.60;99.90
42833;DHT22;28479;51.478;5.692;2022-09-09T06:40:26;15.60;99.90
42833;DHT22;28479;51.478;5.692;2022-09-09T06:42:52;15.60;99.90
42833;DHT22;28479;51.478;5.692;2022-09-09T06:45:18;15.50;99.90
42833;DHT22;28479;51.478;5.692;2022-09-09T06:47:44;15.50;99.90
42833;DHT22;28479;51.478;5.692;2022-09-09T06:50:10;15.60;99.90
42833;DHT22;28479;51.478;5.692;2022-09-09T06:52:36;15.60;99.90
42833;DHT22;28479;51.478;5.692;2022-09-09T06:55:02;15.60;99.90
42833;DHT22;28479;51.478;5.692;2022-09-09T06:57:28;15.70;99.90
42833;DHT22;28479;51.478;5.692;2022-09-09T06:59:54;15.80;99.90
42833;DHT22;28479;51.478;5.692;2022-09-09T07:02:19;15.80;99.90
42833;DHT22;28479;51.478;5.692;2022-09-09T07:04:45;15.80;99.90
42833;DHT22;28479;51.478;5.692;2022-09-09T07:07:10;15.70;99.90
42833;DHT22;28479;51.478;5.692;2022-09-09T07:09:39;15.70;99.90
42833;DHT22;28479;51.478;5.692;2022-09-09T07:12:05;15.70;99.90
42833;DHT22;28479;51.478;5.692;2022-09-09T07:14:31;15.80;99.90
42833;DHT22;28479;51.478;5.692;2022-09-09T07:16:58;15.90;99.90
42833;DHT22;28479;51.478;5.692;2022-09-09T07:19:23;16.00;99.90
42833;DHT22;28479;51.478;5.692;2022-09-09T07:21:49;16.10;99.90
42833;DHT22;28479;51.478;5.692;2022-09-09T07:24:15;16.20;99.90
42833;DHT22;28479;51.478;5.692;2022-09-09T07:26:41;16.30;99.90
42833;DHT22;28479;51.478;5.692;2022-09-09T07:29:07;16.40;99.90
42833;DHT22;28479;51.478;5.692;2022-09-09T07:31:35;16.40;99.90
42833;DHT22;28479;51.478;5.692;2022-09-09T07:34:03;16.50;99.90
42833;DHT22;28479;51.478;5.692;2022-09-09T07:36:37;16.60;99.90
42833;DHT22;28479;51.478;5.692;2022-09-09T07:39:09;16.70;99.90
42833;DHT22;28479;51.478;5.692;2022-09-09T07:41:41;16.70;99.90
42833;DHT22;28479;51.478;5.692;2022-09-09T07:44:15;16.80;99.90
42833;DHT22;28479;51.478;5.692;2022-09-09T07:46:41;17.00;99.90
42833;DHT22;28479;51.478;5.692;2022-09-09T07:49:08;17.10;99.90
42833;DHT22;28479;51.478;5.692;2022-09-09T07:51:36;17.30;99.90
42833;DHT22;28479;51.478;5.692;2022-09-09T07:54:04;17.40;99.90
42833;DHT22;28479;51.478;5.692;2022-09-09T07:56:31;17.40;99.90
42833;DHT22;28479;51.478;5.692;2022-09-09T07:58:58;17.40;99.90
42833;DHT22;28479;51.478;5.692;2022-09-09T08:01:33;17.50;99.90
42833;DHT22;28479;51.478;5.692;2022-09-09T08:04:04;17.60;99.90
42833;DHT22;28479;51.478;5.692;2022-09-09T08:06:35;17.80;99.90
42833;DHT22;28479;51.478;5.692;2022-09-09T08:09:01;17.90;99.90
42833;DHT22;28479;51.478;5.692;2022-09-09T08:11:29;17.90;99.90
42833;DHT22;28479;51.478;5.692;2022-09-09T08:13:55;18.00;99.90
42833;DHT22;28479;51.478;5.692;2022-09-09T08:16:23;18.00;99.90
42833;DHT22;28479;51.478;5.692;2022-09-09T08:18:50;18.20;99.90
42833;DHT22;28479;51.478;5.692;2022-09-09T08:21:28;18.30;99.90
42833;DHT22;28479;51.478;5.692;2022-09-09T08:23:55;18.40;99.90
42833;DHT22;28479;51.478;5.692;2022-09-09T08:26:23;18.50;99.90
42833;DHT22;28479;51.478;5.692;2022-09-09T08:28:51;18.70;99.90
42833;DHT22;28479;51.478;5.692;2022-09-09T08:31:26;18.90;99.90
42833;DHT22;28479;51.478;5.692;2022-09-09T08:33:53;19.00;99.90
42833;DHT22;28479;51.478;5.692;2022-09-09T08:36:21;18.90;99.90
42833;DHT22;28479;51.478;5.692;2022-09-09T08:38:48;18.70;99.90
42833;DHT22;28479;51.478;5.692;2022-09-09T08:41:48;18.60;99.90
42833;DHT22;28479;51.478;5.692;2022-09-09T08:55:43;18.40;99.90
42833;DHT22;28479;51.478;5.692;2022-09-09T08:58:17;18.50;99.90
42833;DHT22;28479;51.478;5.692;2022-09-09T09:12:00;18.60;99.90
42833;DHT22;28479;51.478;5.692;2022-09-09T09:14:29;18.60;99.90
42833;DHT22;28479;51.478;5.692;2022-09-09T09:17:01;18.50;99.90
42833;DHT22;28479;51.478;5.692;2022-09-09T09:19:29;18.40;99.90
42833;DHT22;28479;51.478;5.692;2022-09-09T09:22:18;18.20;99.90
42833;DHT22;28479;51.478;5.692;2022-09-09T09:30:22;18.10;99.90
42833;DHT22;28479;51.478;5.692;2022-09-09T09:35:52;18.10;99.90
42833;DHT22;28479;51.478;5.692;2022-09-09T09:38:24;18.20;99.90
42833;DHT22;28479;51.478;5.692;2022-09-09T09:40:55;18.20;99.90
42833;DHT22;28479;51.478;5.692;2022-09-09T09:43:53;18.30;99.90
42833;DHT22;28479;51.478;5.692;2022-09-09T09:46:24;18.30;99.90
42833;DHT22;28479;51.478;5.692;2022-09-09T09:49:05;18.20;99.90
42833;DHT22;28479;51.478;5.692;2022-09-09T09:51:32;18.20;99.90
42833;DHT22;28479;51.478;5.692;2022-09-09T09:54:14;18.20;99.90
42833;DHT22;28479;51.478;5.692;2022-09-09T09:56:44;18.20;99.90
42833;DHT22;28479;51.478;5.692;2022-09-09T09:59:22;18.30;99.90
42833;DHT22;28479;51.478;5.692;2022-09-09T10:04:45;18.20;99.90
42833;DHT22;28479;51.478;5.692;2022-09-09T10:07:21;18.30;99.90
42833;DHT22;28479;51.478;5.692;2022-09-09T10:09:57;18.50;99.90
42833;DHT22;28479;51.478;5.692;2022-09-09T10:27:36;18.90;99.90
42833;DHT22;28479;51.478;5.692;2022-09-09T10:33:04;18.70;99.90
42833;DHT22;28479;51.478;5.692;2022-09-09T10:39:05;18.80;99.90
42833;DHT22;28479;51.478;5.692;2022-09-09T10:41:42;18.70;99.90
42833;DHT22;28479;51.478;5.692;2022-09-09T10:55:17;17.40;99.90
42833;DHT22;28479;51.478;5.692;2022-09-09T11:02:24;17.30;99.90
42833;DHT22;28479;51.478;5.692;2022-09-09T11:08:38;17.20;99.90
42833;DHT22;28479;51.478;5.692;2022-09-09T11:17:33;16.70;99.90
42833;DHT22;28479;51.478;5.692;2022-09-09T11:20:20;16.60;99.90
42833;DHT22;28479;51.478;5.692;2022-09-09T11:23:15;16.50;99.90
42833;DHT22;28479;51.478;5.692;2022-09-09T11:26:02;16.70;99.90
42833;DHT22;28479;51.478;5.692;2022-09-09T11:31:46;17.30;99.90
42833;DHT22;28479;51.478;5.692;2022-09-09T11:34:45;17.50;99.90
42833;DHT22;28479;51.478;5.692;2022-09-09T11:37:40;17.60;99.90
42833;DHT22;28479;51.478;5.692;2022-09-09T11:40:23;17.80;99.90
42833;DHT22;28479;51.478;5.692;2022-09-09T11:42:49;18.10;99.90
42833;DHT22;28479;51.478;5.692;2022-09-09T11:45:50;18.30;99.90
42833;DHT22;28479;51.478;5.692;2022-09-09T11:51:38;18.40;99.90
42833;DHT22;28479;51.478;5.692;2022-09-09T11:54:28;18.40;99.90
42833;DHT22;28479;51.478;5.692;2022-09-09T12:00:39;18.60;99.90
42833;DHT22;28479;51.478;5.692;2022-09-09T12:33:12;19.30;99.90
42833;DHT22;28479;51.478;5.692;2022-09-09T12:41:30;19.80;99.90
42833;DHT22;28479;51.478;5.692;2022-09-09T12:47:41;19.90;99.90
42833;DHT22;28479;51.478;5.692;2022-09-09T12:50:29;20.10;99.90
42833;DHT22;28479;51.478;5.692;2022-09-09T12:52:57;20.20;99.90
42833;DHT22;28479;51.478;5.692;2022-09-09T12:58:49;20.40;99.90
42833;DHT22;28479;51.478;5.692;2022-09-09T13:01:35;20.00;99.90
42833;DHT22;28479;51.478;5.692;2022-09-09T13:04:01;19.60;99.90
42833;DHT22;28479;51.478;5.692;2022-09-09T13:07:07;19.60;99.90
42833;DHT22;28479;51.478;5.692;2022-09-09T13:18:44;19.40;99.90
42833;DHT22;28479;51.478;5.692;2022-09-09T13:24:39;19.30;99.90
42833;DHT22;28479;51.478;5.692;2022-09-09T14:47:24;20.60;99.90
42833;DHT22;28479;51.478;5.692;2022-09-09T14:56:33;21.60;99.90
42833;DHT22;28479;51.478;5.692;2022-09-09T14:59:36;21.40;99.90
42833;DHT22;28479;51.478;5.692;2022-09-09T15:02:02;21.70;99.90
42833;DHT22;28479;51.478;5.692;2022-09-09T15:04:46;21.90;99.90
42833;DHT22;28479;51.478;5.692;2022-09-09T15:10:15;22.00;99.90
42833;DHT22;28479;51.478;5.692;2022-09-09T15:18:56;21.60;99.90
42833;DHT22;28479;51.478;5.692;2022-09-09T15:30:37;21.20;99.90
42833;DHT22;28479;51.478;5.692;2022-09-09T15:36:14;21.10;99.90
42833;DHT22;28479;51.478;5.692;2022-09-09T18:09:24;15.80;99.90
42833;DHT22;28479;51.478;5.692;2022-09-09T18:15:18;15.80;99.90
42833;DHT22;28479;51.478;5.692;2022-09-09T18:18:28;15.70;99.90
42833;DHT22;28479;51.478;5.692;2022-09-09T18:24:47;15.70;99.90
42833;DHT22;28479;51.478;5.692;2022-09-09T18:27:38;15.60;99.90
42833;DHT22;28479;51.478;5.692;2022-09-09T18:34:17;15.60;99.90
42833;DHT22;28479;51.478;5.692;2022-09-09T18:37:27;15.60;99.90
42833;DHT22;28479;51.478;5.692;2022-09-09T18:40:36;15.60;99.90
42833;DHT22;28479;51.478;5.692;2022-09-09T19:00:10;15.60;99.90
42833;DHT22;28479;51.478;5.692;2022-09-09T19:13:38;15.80;99.90
42833;DHT22;28479;51.478;5.692;2022-09-09T19:19:28;15.80;99.90
42833;DHT22;28479;51.478;5.692;2022-09-09T19:28:02;15.80;99.90
42833;DHT22;28479;51.478;5.692;2022-09-09T19:30:46;15.80;99.90
42833;DHT22;28479;51.478;5.692;2022-09-09T19:33:13;15.80;99.90
42833;DHT22;28479;51.478;5.692;2022-09-09T19:39:02;15.80;99.90
42833;DHT22;28479;51.478;5.692;2022-09-09T19:47:16;15.90;99.90
42833;DHT22;28479;51.478;5.692;2022-09-09T19:53:05;15.90;99.90
42833;DHT22;28479;51.478;5.692;2022-09-09T19:55:49;15.90;99.90
42833;DHT22;28479;51.478;5.692;2022-09-09T19:58:17;15.90;99.90
42833;DHT22;28479;51.478;5.692;2022-09-09T20:01:21;15.90;99.90
42833;DHT22;28479;51.478;5.692;2022-09-09T22:29:47;15.20;99.90
42833;DHT22;28479;51.478;5.692;2022-09-09T22:32:12;15.20;99.90
42833;DHT22;28479;51.478;5.692;2022-09-09T22:35:15;15.20;99.90
42833;DHT22;28479;51.478;5.692;2022-09-09T22:46:32;15.10;99.90
42833;DHT22;28479;51.478;5.692;2022-09-09T22:52:19;15.10;99.90
42833;DHT22;28479;51.478;5.692;2022-09-09T22:57:29;15.00;99.90
42833;DHT22;28479;51.478;5.692;2022-09-09T23:03:17;15.00;99.90
42833;DHT22;28479;51.478;5.692;2022-09-09T23:12:12;15.00;99.90
42833;DHT22;28479;51.478;5.692;2022-09-09T23:21:02;14.90;99.90
42833;DHT22;28479;51.478;5.692;2022-09-09T23:23:51;14.90;99.90
42833;DHT22;28479;51.478;5.692;2022-09-09T23:26:35;14.90;99.90
42833;DHT22;28479;51.478;5.692;2022-09-09T23:29:01;14.90;99.90
42833;DHT22;28479;51.478;5.692;2022-09-09T23:31:48;14.90;99.90
42833;DHT22;28479;51.478;5.692;2022-09-09T23:45:42;14.90;99.90
42833;DHT22;28479;51.478;5.692;2022-09-09T23:48:45;14.90;99.90
42833;DHT22;28479;51.478;5.692;2022-09-09T23:51:49;15.00;99.90
42833;DHT22;28479;51.478;5.692;2022-09-09T23:54:15;15.00;99.90
